Flight Track Log - Related Links

Times and Time Zones

All times are in EST time to prevent confusion due to time zone crossing. See the AWE1756 flight status page for this flight to view local times or setup timezone preferences in your user account.

Time Position Orientation Groundspeed Altitude Reporting Facility
EST Latitude Longitude Course Direction KTS MPH feet Rate Location/Type
Mon 07:34:38 AM 36.1333 -86.6500 99° East 150 173 1,400  Level Nashville TRACON
Mon 07:35:44 AM 36.1500 -86.6000 68° East 190 219 3,800 2,082 Climbing Nashville TRACON
Mon 07:36:16 AM 36.1431 -86.5594 102° East 209 241 4,800 2,645 Climbing Memphis Center
Mon 07:37:00 AM 36.0411 -86.0667 104° East  Level Estimated
Mon 07:37:17 AM 36.1278 -86.4622 101° East 276 318 7,900  Level Memphis Center
Mon 07:38:00 AM 36.0198 -85.9140 90° East  Level Estimated
Mon 07:38:18 AM 36.1125 -86.3558 100° East 303 349 10,600  Level Memphis Center
Mon 07:39:00 AM 35.9983 -85.7614 99° East  Level Estimated
Mon 07:39:19 AM 36.0928 -86.2225 100° East 382 440 11,700  Level Memphis Center
Mon 07:40:19 AM 36.0706 -86.0694 100° East 436 502 14,000 2,380 Climbing Memphis Center
Mon 07:41:20 AM 36.0578 -85.9078 96° East 463 533 16,500 2,066 Climbing Memphis Center
Mon 07:42:21 AM 36.0469 -85.7325 94° East 483 556 18,200 1,820 Climbing Memphis Center
Mon 07:43:22 AM 36.0344 -85.5569 95° East 505 581 20,200 1,770 Climbing Memphis Center
Mon 07:44:23 AM 36.0214 -85.3772 95° East 520 598 21,800 1,525 Climbing Memphis Center
Mon 07:45:24 AM 36.0081 -85.1908 95° East 537 618 23,300 1,475 Climbing Memphis Center
Mon 07:46:25 AM 35.9936 -84.9989 95° East 548 631 24,800 1,328 Climbing Memphis Center
Mon 07:47:26 AM 35.9786 -84.7994 95° East 559 643 26,000 1,426 Climbing Memphis Center
Mon 07:48:27 AM 35.9633 -84.6011 95° East 567 652 27,700 1,475 Climbing Memphis Center
Mon 07:49:28 AM 35.9481 -84.4108 96° East 560 644 29,000 639 Climbing Memphis Center
Mon 07:50:29 AM 35.9328 -84.2294 96° East 538 619 29,000  Level Memphis Center
Mon 07:51:31 AM 35.9183 -84.0472 96° East 536 617 29,000  Level Memphis Center
Mon 07:52:51 AM 35.9036 -83.8183 94° East 540 621 29,000  Level Atlanta Center
Mon 07:53:51 AM 35.8992 -83.6336 92° East 540 621 29,000  Level Atlanta Center
Mon 07:54:51 AM 35.8964 -83.4517 91° East 535 616 29,000  Level Atlanta Center
Mon 07:55:51 AM 35.8931 -83.2672 91° East 535 616 29,000  Level Atlanta Center
Mon 07:56:51 AM 35.8875 -83.0775 92° East 535 616 29,000 -50 Level Atlanta Center
Mon 07:57:51 AM 35.8839 -82.8906 91° East 540 621 28,900 -950 Descending Atlanta Center
Mon 07:58:51 AM 35.8781 -82.7086 92° East 540 621 27,100 -2,000 Descending Atlanta Center
Mon 07:59:51 AM 35.8739 -82.5344 92° East 520 598 24,900 -2,100 Descending Atlanta Center
Mon 08:00:51 AM 35.8508 -82.3708 100° East 493 567 22,900 -2,050 Descending Atlanta Center
Mon 08:01:51 AM 35.8092 -82.2258 109° East 465 535 20,800 -2,050 Descending Atlanta Center
Mon 08:02:51 AM 35.7653 -82.0861 111° Southeast 448 516 18,800 -1,950 Descending Atlanta Center
Mon 08:03:51 AM 35.7214 -81.9514 112° Southeast 431 496 16,900 -2,050 Descending Atlanta Center
Mon 08:04:51 AM 35.6731 -81.8197 114° Southeast 426 490 14,700 -2,299 Descending Atlanta Center
Mon 08:05:38 AM 35.6294 -81.7086 116° Southeast 414 476 12,800 -2,100 Descending Atlanta Center
Mon 08:05:51 AM 35.6228 -81.6883 112° Southeast 421 484 12,600 -980 Descending Atlanta Center
Mon 08:06:27 AM 35.5919 -81.6025 114° Southeast 397 457 12,000 -600 Descending Atlanta Center
Mon 08:06:51 AM 35.5786 -81.5722 118° Southeast 396 456 12,000 -806 Level Atlanta Center
Mon 08:07:34 AM 35.5394 -81.4867 119° Southeast 353 406 11,100 -1,300 Descending Atlanta Center
Mon 08:07:51 AM 35.5286 -81.4664 123° Southeast 376 433 10,700 -985 Descending Atlanta Center
Mon 08:08:41 AM 35.4681 -81.3739 129° Southeast 366 421 10,000 -700 Descending Atlanta Center
Mon 08:08:51 AM 35.4553 -81.3592 137° Southeast 368 423 10,000  Level Atlanta Center
Mon 08:09:36 AM 35.4078 -81.2867 129° Southeast 365 420 10,000  Level Atlanta Center
Mon 08:09:51 AM 35.3928 -81.2644 130° Southeast 368 423 10,000  Level Atlanta Center
Mon 08:10:31 AM 35.3497 -81.2047 131° Southeast 352 405 10,000 -400 Level Atlanta Center
Mon 08:10:51 AM 35.3344 -81.1772 124° Southeast 356 410 9,600 -882 Descending Atlanta Center
Mon 08:11:39 AM 35.2914 -81.1178 132° Southeast 302 348 9,000 -600 Descending Atlanta Center
Mon 08:11:51 AM 35.2783 -81.0953 125° Southeast 331 381 9,000 -167 Level Atlanta Center
Mon 08:12:51 AM 35.2086 -81.0697 163° South 282 325 8,800 -800 Descending Atlanta Center
Mon 08:13:51 AM 35.1397 -81.0644 176° South 250 288 7,400 -1,500 Descending Atlanta Center
Mon 08:14:51 AM 35.0750 -81.0567 174° South 244 281 5,800 -1,619 Descending Atlanta Center
Mon 08:14:54 AM 35.0728 -81.0569 186° South 235 270 5,700 -828 Descending Atlanta Center
Mon 08:15:49 AM 35.0122 -81.0564 180° South 236 272 5,000 -362 Descending Atlanta Center
Mon 08:16:50 AM 34.9453 -81.0486 175° South 241 277 5,000  Level Atlanta Center
Mon 08:17:52 AM 34.8739 -81.0336 170° South 249 287 5,000  Level Atlanta Center
Mon 08:18:47 AM 34.8661 -80.9656 98° East 242 278 5,000  Level Atlanta Center
Mon 08:19:54 AM 34.9178 -80.9458 17° North 158 182 5,000  Level Atlanta Center
Mon 08:20:55 AM 34.9636 -80.9467 359° North 159 183 5,000 -246 Level Atlanta Center
Mon 08:21:56 AM 35.0097 -80.9525 354° North 164 189 4,500 -621 Descending Atlanta Center
Mon 08:22:51 AM 35.0472 -80.9539 358° North 161 185 3,800 -828 Descending Atlanta Center
Mon 08:23:52 AM 35.0956 -80.9594 355° North 157 181 2,900 -885 Descending Atlanta Center
Mon 08:24:53 AM 35.1394 -80.9631 356° North 153 176 2,000 -787 Descending Atlanta Center
Mon 08:25:54 AM 35.1750 -80.9667 355° North 131 151 1,300 -689 Descending Atlanta Center

Login

Don't have an account? Register now (free) for customized features, flight alerts, and more!